createdAt,value
2022-11-29T00:02:35.033Z,53.40
2022-11-29T00:07:41.235Z,55.03
2022-11-29T00:12:48.469Z,51.23
2022-11-29T00:17:54.431Z,49.10
2022-11-29T00:23:00.496Z,59.60
2022-11-29T00:28:05.696Z,66.30
2022-11-29T00:33:10.793Z,50.97
2022-11-29T00:38:16.172Z,67.97
2022-11-29T00:43:21.501Z,53.00
2022-11-29T00:48:27.716Z,37.10
2022-11-29T00:53:33.767Z,62.97
2022-11-29T00:58:38.761Z,51.03
2022-11-29T01:03:43.705Z,51.57
2022-11-29T01:08:50.496Z,53.53
2022-11-29T01:13:58.462Z,55.43
2022-11-29T01:19:03.869Z,51.10
2022-11-29T01:24:08.958Z,54.97
2022-11-29T01:29:14.869Z,53.38
2022-11-29T01:34:20.141Z,50.88
2022-11-29T01:39:25.072Z,50.10
2022-11-29T01:44:33.498Z,48.60
2022-11-29T01:49:44.641Z,47.40
2022-11-29T01:54:56.156Z,48.67
2022-11-29T02:00:04.651Z,46.63
2022-11-29T02:05:09.985Z,47.03
2022-11-29T02:10:16.151Z,45.53
2022-11-29T02:15:42.636Z,47.55
2022-11-29T02:21:20.346Z,47.63
2022-11-29T02:26:46.075Z,46.57
2022-11-29T02:32:17.544Z,46.20
2022-11-29T02:37:52.884Z,45.75
2022-11-29T02:43:23.238Z,45.67
2022-11-29T02:49:03.356Z,46.65
2022-11-29T02:54:26.360Z,46.00
2022-11-29T02:59:55.974Z,45.17
2022-11-29T03:05:06.692Z,45.37
2022-11-29T03:10:24.986Z,47.67
2022-11-29T03:15:39.882Z,46.07
2022-11-29T03:21:02.824Z,45.17
2022-11-29T03:26:10.979Z,45.03
2022-11-29T03:31:37.151Z,44.60
2022-11-29T03:37:06.206Z,46.63
2022-11-29T03:42:15.794Z,47.10
2022-11-29T03:47:23.988Z,47.73
2022-11-29T03:52:55.551Z,48.98
2022-11-29T03:58:12.462Z,48.37
2022-11-29T04:03:23.459Z,45.08
2022-11-29T04:08:34.481Z,45.08
2022-11-29T04:13:54.271Z,46.45
2022-11-29T04:19:18.734Z,48.43
2022-11-29T04:24:38.529Z,50.50
2022-11-29T04:29:49.405Z,44.80
2022-11-29T04:35:06.015Z,44.40
2022-11-29T04:40:20.881Z,45.12
2022-11-29T04:45:46.679Z,44.73
2022-11-29T04:51:00.397Z,46.23
2022-11-29T04:56:28.455Z,46.57
2022-11-29T05:01:58.873Z,44.37
2022-11-29T05:07:29.900Z,44.55
2022-11-29T05:12:40.940Z,45.20
2022-11-29T05:17:58.022Z,43.97
2022-11-29T05:23:11.882Z,45.33
2022-11-29T05:28:29.597Z,43.40
2022-11-29T05:34:00.389Z,45.13
2022-11-29T05:39:27.264Z,44.65
2022-11-29T05:44:48.384Z,44.67
2022-11-29T05:50:05.712Z,43.90
2022-11-29T05:55:30.257Z,43.80
2022-11-29T06:00:40.927Z,43.50
2022-11-29T06:05:59.201Z,43.40
2022-11-29T06:11:07.391Z,43.23
2022-11-29T06:16:45.284Z,42.78
2022-11-29T06:22:02.529Z,43.33
2022-11-29T06:27:32.367Z,43.48
2022-11-29T06:32:46.082Z,43.87
2022-11-29T06:37:56.274Z,42.43
2022-11-29T06:43:02.145Z,45.20
2022-11-29T06:48:09.877Z,42.90
2022-11-29T06:53:42.116Z,43.43
2022-11-29T06:58:50.626Z,43.67
2022-11-29T07:04:01.589Z,43.03
2022-11-29T07:09:15.841Z,44.07
2022-11-29T07:14:21.374Z,43.48
2022-11-29T07:19:38.372Z,44.03
2022-11-29T07:25:01.901Z,32.10
2022-11-29T07:30:21.745Z,43.63
2022-11-29T07:35:52.606Z,43.87
2022-11-29T07:41:15.977Z,44.35
2022-11-29T07:46:21.315Z,41.90
2022-11-29T07:51:26.834Z,42.50
2022-11-29T07:56:32.738Z,44.20
2022-11-29T08:01:39.623Z,43.80
2022-11-29T08:06:44.557Z,43.20
2022-11-29T08:11:50.520Z,44.23
2022-11-29T08:16:56.466Z,43.98
2022-11-29T08:22:01.769Z,46.17
2022-11-29T08:27:07.264Z,44.63
2022-11-29T08:32:13.818Z,46.15
2022-11-29T08:37:19.474Z,46.90
2022-11-29T08:42:24.874Z,47.23
2022-11-29T08:47:38.835Z,49.23
2022-11-29T08:53:06.589Z,49.57
2022-11-29T08:58:14.895Z,48.23
2022-11-29T09:03:38.314Z,47.60
2022-11-29T09:08:44.257Z,45.53
2022-11-29T09:13:52.108Z,45.83
2022-11-29T09:18:57.707Z,45.03
2022-11-29T09:24:06.821Z,44.93
2022-11-29T09:29:12.316Z,43.07
2022-11-29T09:34:20.505Z,44.87
2022-11-29T09:39:26.239Z,44.03
2022-11-29T09:44:43.500Z,46.37
2022-11-29T09:49:52.506Z,44.07
2022-11-29T09:55:10.355Z,46.93
2022-11-29T10:00:19.785Z,47.10
2022-11-29T10:05:50.277Z,46.73
2022-11-29T10:10:58.368Z,46.27
2022-11-29T10:16:10.533Z,45.33
2022-11-29T10:21:22.004Z,44.87
2022-11-29T10:26:34.808Z,45.15
2022-11-29T10:31:40.576Z,45.87
2022-11-29T10:36:51.859Z,45.53
2022-11-29T10:42:00.440Z,45.20
2022-11-29T10:47:10.797Z,45.93
2022-11-29T10:52:24.003Z,47.27
2022-11-29T10:57:29.266Z,47.55
2022-11-29T11:02:35.995Z,45.37
2022-11-29T11:07:42.012Z,46.42
2022-11-29T11:12:50.384Z,46.57
2022-11-29T11:18:01.856Z,46.73
2022-11-29T11:23:27.644Z,46.83
2022-11-29T11:28:38.582Z,46.40
2022-11-29T11:33:47.770Z,46.67
2022-11-29T11:38:58.328Z,46.33
2022-11-29T11:44:10.441Z,45.83
2022-11-29T11:49:13.231Z,46.33
2022-11-29T11:54:19.189Z,47.23
2022-11-29T11:59:27.410Z,46.30
2022-11-29T12:04:35.863Z,47.80
2022-11-29T12:09:53.607Z,47.70
2022-11-29T12:15:10.601Z,47.30
2022-11-29T12:20:28.200Z,46.45
2022-11-29T12:25:36.768Z,46.73
2022-11-29T12:30:50.360Z,46.47
2022-11-29T12:36:01.003Z,46.63
2022-11-29T12:41:30.136Z,45.47
2022-11-29T12:46:38.563Z,46.90
2022-11-29T12:51:52.683Z,45.00
2022-11-29T12:57:12.392Z,48.63
2022-11-29T13:02:35.404Z,46.97
2022-11-29T13:08:00.513Z,48.00
2022-11-29T13:13:43.627Z,47.30
2022-11-29T13:19:02.034Z,47.25
2022-11-29T13:24:10.243Z,45.60
2022-11-29T13:29:17.995Z,47.77
2022-11-29T13:34:26.114Z,47.53
2022-11-29T13:39:52.164Z,46.13
2022-11-29T13:45:09.806Z,48.33
2022-11-29T13:50:39.779Z,48.67
2022-11-29T13:55:50.369Z,50.63
2022-11-29T14:01:04.946Z,47.17
2022-11-29T14:06:21.907Z,46.93
2022-11-29T14:11:39.900Z,55.83
2022-11-29T14:16:48.052Z,52.73
2022-11-29T14:22:07.691Z,47.60
2022-11-29T14:27:17.040Z,46.60
2022-11-29T14:32:46.704Z,46.63
2022-11-29T14:38:06.616Z,47.33
2022-11-29T14:43:35.752Z,46.53
2022-11-29T14:48:47.487Z,46.50
2022-11-29T14:54:12.298Z,46.43
2022-11-29T14:59:43.377Z,46.68
2022-11-29T15:04:51.706Z,48.23
2022-11-29T15:09:59.599Z,47.87
2022-11-29T15:15:10.658Z,48.83
2022-11-29T15:20:24.674Z,49.27
2022-11-29T15:25:32.860Z,48.97
2022-11-29T15:30:40.177Z,48.70
2022-11-29T15:35:51.775Z,48.67
2022-11-29T15:40:58.395Z,48.93
2022-11-29T15:46:07.997Z,48.03
2022-11-29T15:51:22.827Z,46.88
2022-11-29T15:56:49.295Z,48.70
2022-11-29T16:01:57.979Z,48.40
2022-11-29T16:07:06.247Z,48.00
2022-11-29T16:12:14.520Z,47.17
2022-11-29T16:17:21.607Z,48.10
2022-11-29T16:22:26.486Z,47.60
2022-11-29T16:27:34.633Z,48.65
2022-11-29T16:32:44.511Z,46.60
2022-11-29T16:37:49.856Z,48.57
2022-11-29T16:43:06.922Z,48.93
2022-11-29T16:48:28.663Z,47.97
2022-11-29T16:53:36.839Z,46.97
2022-11-29T16:59:21.081Z,50.37
2022-11-29T17:03:49.764Z,50.50
2022-11-29T17:08:58.800Z,49.73
2022-11-29T17:14:04.295Z,48.30
2022-11-29T17:19:13.923Z,52.80
2022-11-29T17:24:22.382Z,54.30
2022-11-29T17:29:27.831Z,49.73
2022-11-29T17:34:35.143Z,50.93
2022-11-29T17:39:43.044Z,63.37
2022-11-29T17:44:49.587Z,65.40
2022-11-29T17:49:55.321Z,56.47
2022-11-29T17:55:01.689Z,61.47
2022-11-29T18:00:09.424Z,57.73
2022-11-29T18:05:16.431Z,56.27
2022-11-29T18:10:22.555Z,55.28
2022-11-29T18:15:27.638Z,57.57
2022-11-29T18:20:32.724Z,55.43
2022-11-29T18:25:39.896Z,52.93
2022-11-29T18:30:50.090Z,53.53
2022-11-29T18:35:55.307Z,61.68
2022-11-29T18:41:00.962Z,59.33
2022-11-29T18:46:11.089Z,59.13
2022-11-29T18:51:18.775Z,63.60
2022-11-29T18:56:27.474Z,67.00
2022-11-29T19:01:36.721Z,79.27
2022-11-29T19:06:44.459Z,73.10
2022-11-29T19:11:50.707Z,70.40
2022-11-29T19:16:55.942Z,76.17
2022-11-29T19:22:01.348Z,76.63
2022-11-29T19:27:07.089Z,78.77
2022-11-29T19:32:14.184Z,73.67
2022-11-29T19:37:19.546Z,73.55
2022-11-29T19:42:26.186Z,72.40
2022-11-29T19:47:31.589Z,71.93
2022-11-29T19:52:37.904Z,72.33
2022-11-29T19:57:43.465Z,68.77
2022-11-29T20:02:49.022Z,69.00
2022-11-29T20:07:55.707Z,68.25
2022-11-29T20:13:02.715Z,72.93
2022-11-29T20:18:07.789Z,77.87
2022-11-29T20:23:15.089Z,77.47
2022-11-29T20:28:20.482Z,76.93
2022-11-29T20:33:27.340Z,78.97
2022-11-29T20:38:36.141Z,79.00
2022-11-29T20:43:53.093Z,81.97
2022-11-29T20:54:05.819Z,76.07
2022-11-29T20:59:11.113Z,74.80
2022-11-29T21:04:22.876Z,72.60
2022-11-29T21:09:23.953Z,70.23
2022-11-29T21:14:29.142Z,65.80
2022-11-29T21:19:34.180Z,63.77
2022-11-29T21:24:48.500Z,67.40
2022-11-29T21:29:54.462Z,58.97
2022-11-29T21:35:00.102Z,64.00
2022-11-29T21:40:05.834Z,66.53
2022-11-29T21:45:15.284Z,73.57
2022-11-29T21:50:18.196Z,73.23
2022-11-29T21:55:30.017Z,71.30
2022-11-29T22:00:35.969Z,67.03
2022-11-29T22:05:37.098Z,62.60
2022-11-29T22:10:42.373Z,66.10
2022-11-29T22:15:47.728Z,64.87
2022-11-29T22:20:53.432Z,62.90
2022-11-29T22:26:04.410Z,62.47
2022-11-29T22:31:12.729Z,61.47
2022-11-29T22:36:17.946Z,64.00
2022-11-29T22:41:22.813Z,64.90
2022-11-29T22:46:29.221Z,65.08
2022-11-29T22:51:37.237Z,57.90
2022-11-29T22:56:44.095Z,63.67
2022-11-29T23:01:49.144Z,57.10
2022-11-29T23:06:54.007Z,57.40
2022-11-29T23:11:58.944Z,59.73
2022-11-29T23:17:03.843Z,62.87
2022-11-29T23:22:11.029Z,78.07
2022-11-29T23:27:16.487Z,58.20
2022-11-29T23:32:21.848Z,57.10
2022-11-29T23:37:27.152Z,40.67
2022-11-29T23:42:32.763Z,61.68
2022-11-29T23:47:38.229Z,57.40
2022-11-29T23:52:43.883Z,56.50
2022-11-29T23:57:49.970Z,58.27
